Time;durP1;ratioP1;P1;durP2;ratioP2;P2;SDS_P1;SDS_P2;PMS_P1;PMS_P2;Temp;Humidity;BMP_temperature;BMP_pressure;BME280_temperature;BME280_humidity;BME280_pressure;Samples;Min_cycle;Max_cycle;Signal;HPM_P1;HPM_P2
2020/12/03 00:00:55;;;;;;;;;;;;;;;1.15;75.19;100567.02;1725911;81;20427;-84
2020/12/03 00:03:22;;;;;;;;;;;;;;;1.06;75.35;100561.41;1700708;82;20275;-82
2020/12/03 00:05:59;;;;;;;;;;;;;;;1.07;75.47;100556.59;1724783;81;20236;-84
2020/12/03 00:08:27;;;;;;;;;;;;;;;1.05;75.49;100559.72;1729473;81;21189;-82
2020/12/03 00:10:55;;;;;;;;;;;;;;;1.02;75.52;100559.89;1743149;81;38365;-82
2020/12/03 00:13:24;;;;;;;;;;;;;;;1.03;75.54;100558.98;1745101;81;20219;-82
2020/12/03 00:15:57;;;;;;;;;;;;;;;1.05;75.50;100555.81;1743440;81;21069;-84
2020/12/03 00:18:25;;;;;;;;;;;;;;;1.02;75.39;100552.09;1722151;82;20267;-84
2020/12/03 00:20:51;;;;;;;;;;;;;;;0.96;75.49;100564.59;1733645;81;21257;-83
2020/12/03 00:23:16;;;;;;;;;;;;;;;0.90;75.69;100559.26;1734119;81;20216;-83
2020/12/03 00:25:43;;;;;;;;;;;;;;;0.86;75.55;100564.27;1742959;81;20181;-83
2020/12/03 00:28:09;;;;;;;;;;;;;;;0.97;75.36;100565.81;1735322;81;20313;-83
2020/12/03 00:30:34;;;;;;;;;;;;;;;1.04;75.13;100568.47;1731117;81;20208;-83
2020/12/03 00:33:00;;;;;;;;;;;;;;;1.19;74.92;100562.03;1730577;81;21333;-84
2020/12/03 00:35:25;;;;;;;;;;;;;;;1.31;74.41;100565.24;1738069;81;20237;-84
2020/12/03 00:37:51;;;;;;;;;;;;;;;1.34;74.18;100563.77;1734314;81;20200;-83
2020/12/03 00:40:17;;;;;;;;;;;;;;;1.44;73.86;100565.38;1733651;81;20165;-82
2020/12/03 00:42:43;;;;;;;;;;;;;;;1.40;73.76;100573.00;1741293;81;20245;-83
2020/12/03 00:45:09;;;;;;;;;;;;;;;1.34;73.57;100580.69;1741578;81;21199;-83
2020/12/03 00:47:35;;;;;;;;;;;;;;;1.28;73.65;100574.99;1745365;81;20253;-83
2020/12/03 00:50:01;;;;;;;;;;;;;;;1.36;73.85;100582.73;1727644;81;20224;-83
2020/12/03 00:52:26;;;;;;;;;;;;;;;1.38;73.41;100589.14;1739328;81;20224;-83
2020/12/03 00:54:52;;;;;;;;;;;;;;;1.42;73.44;100591.48;1741832;81;20205;-84
2020/12/03 00:57:18;;;;;;;;;;;;;;;1.48;73.51;100593.39;1725549;81;21316;-84
2020/12/03 00:59:43;;;;;;;;;;;;;;;1.45;73.34;100603.97;1725011;81;20233;-84
2020/12/03 01:02:11;;;;;;;;;;;;;;;1.44;73.02;100599.20;1736852;81;20213;-82
2020/12/03 01:04:37;;;;;;;;;;;;;;;1.48;73.06;100602.50;1745033;81;20280;-83
2020/12/03 01:07:03;;;;;;;;;;;;;;;1.52;72.98;100597.48;1737970;81;20220;-83
2020/12/03 01:09:29;;;;;;;;;;;;;;;1.56;72.87;100588.11;1735710;80;21197;-82
2020/12/03 01:11:54;;;;;;;;;;;;;;;1.50;72.84;100594.13;1740778;81;20665;-83
2020/12/03 01:14:20;;;;;;;;;;;;;;;1.44;72.84;100590.10;1739187;81;20245;-83
2020/12/03 01:16:46;;;;;;;;;;;;;;;1.49;72.92;100580.73;1738158;81;20205;-84
2020/12/03 01:19:11;;;;;;;;;;;;;;;1.54;72.73;100574.80;1737540;81;20295;-84
2020/12/03 01:21:37;;;;;;;;;;;;;;;1.55;72.65;100564.77;1739517;81;21271;-84
2020/12/03 01:24:03;;;;;;;;;;;;;;;1.62;72.55;100562.20;1732270;81;20418;-84
2020/12/03 01:26:28;;;;;;;;;;;;;;;1.67;72.39;100558.03;1738314;81;20185;-84
2020/12/03 01:28:54;;;;;;;;;;;;;;;1.63;71.99;100555.22;1745251;81;20498;-83
2020/12/03 01:31:20;;;;;;;;;;;;;;;1.72;72.06;100549.00;1741638;81;20194;-83
2020/12/03 01:33:45;;;;;;;;;;;;;;;1.68;71.90;100538.41;1743263;81;21991;-84
2020/12/03 01:36:13;;;;;;;;;;;;;;;1.63;71.83;100541.73;1739278;81;20220;-83
2020/12/03 01:38:38;;;;;;;;;;;;;;;1.61;72.01;100542.29;1737491;81;20225;-84
2020/12/03 01:41:04;;;;;;;;;;;;;;;1.63;72.08;100537.83;1746185;81;20217;-83
2020/12/03 01:43:29;;;;;;;;;;;;;;;1.67;71.91;100531.52;1743770;81;20192;-83
2020/12/03 01:45:58;;;;;;;;;;;;;;;1.66;71.98;100531.14;1734099;81;20717;-83
2020/12/03 01:48:36;;;;;;;;;;;;;;;1.68;71.91;100529.30;1740957;81;20284;-82
2020/12/03 01:51:04;;;;;;;;;;;;;;;1.69;71.75;100512.73;1731300;81;20283;-83
2020/12/03 01:53:30;;;;;;;;;;;;;;;1.64;71.88;100511.34;1742170;81;20313;-84
2020/12/03 01:55:56;;;;;;;;;;;;;;;1.59;72.03;100511.62;1745974;81;20193;-84
2020/12/03 01:58:42;;;;;;;;;;;;;;;1.58;72.23;100499.52;1745633;81;21271;-83
2020/12/03 02:01:08;;;;;;;;;;;;;;;1.51;72.26;100498.19;1744995;80;20504;-84
2020/12/03 02:03:34;;;;;;;;;;;;;;;1.55;72.19;100498.40;1738481;82;20284;-84
2020/12/03 02:05:59;;;;;;;;;;;;;;;1.48;72.14;100487.98;1739392;81;20200;-84
2020/12/03 02:08:25;;;;;;;;;;;;;;;1.47;72.29;100487.61;1739925;81;20228;-83
2020/12/03 02:10:51;;;;;;;;;;;;;;;1.50;72.18;100490.03;1730467;81;21250;-84
2020/12/03 02:13:16;;;;;;;;;;;;;;;1.54;72.19;100477.19;1745275;81;20173;-84
2020/12/03 02:15:42;;;;;;;;;;;;;;;1.50;72.34;100479.62;1739708;80;20172;-84
2020/12/03 02:18:08;;;;;;;;;;;;;;;1.50;72.38;100474.41;1739803;81;20220;-85
2020/12/03 02:20:33;;;;;;;;;;;;;;;1.47;72.34;100470.69;1742400;81;20165;-84
2020/12/03 02:22:59;;;;;;;;;;;;;;;1.51;72.33;100462.61;1741964;81;21291;-84
2020/12/03 02:25:25;;;;;;;;;;;;;;;1.55;72.26;100464.56;1744172;81;20628;-85
2020/12/03 02:27:50;;;;;;;;;;;;;;;1.64;72.41;100454.91;1732777;81;20270;-85
2020/12/03 02:30:16;;;;;;;;;;;;;;;1.66;71.94;100458.25;1744522;81;20248;-85
2020/12/03 02:32:42;;;;;;;;;;;;;;;1.64;72.18;100471.00;1727338;82;20142;-85
2020/12/03 02:35:09;;;;;;;;;;;;;;;1.66;72.07;100474.34;1745370;81;21174;-85
2020/12/03 02:37:35;;;;;;;;;;;;;;;1.60;71.89;100471.63;1738983;81;20353;-85
2020/12/03 02:40:01;;;;;;;;;;;;;;;1.56;71.72;100467.55;1739350;81;20169;-85
2020/12/03 02:42:27;;;;;;;;;;;;;;;1.51;71.70;100444.39;1733159;81;20251;-84
2020/12/03 02:44:53;;;;;;;;;;;;;;;1.53;71.73;100458.63;1720790;81;20182;-85
2020/12/03 02:47:20;;;;;;;;;;;;;;;1.63;71.71;100458.91;1737026;81;21199;-85
2020/12/03 02:49:46;;;;;;;;;;;;;;;1.61;71.66;100452.48;1734699;80;20605;-85
2020/12/03 02:52:13;;;;;;;;;;;;;;;1.54;71.62;100444.66;1739825;81;20180;-85
2020/12/03 02:54:40;;;;;;;;;;;;;;;1.51;71.53;100435.73;1741617;81;20525;-84
2020/12/03 02:57:06;;;;;;;;;;;;;;;1.54;71.71;100433.80;1735288;81;20363;-84
2020/12/03 02:59:32;;;;;;;;;;;;;;;1.61;71.51;100424.69;1746315;81;21191;-84
2020/12/03 03:01:58;;;;;;;;;;;;;;;1.60;71.43;100422.17;1746546;80;20977;-82
2020/12/03 03:04:25;;;;;;;;;;;;;;;1.60;71.51;100414.36;1733070;81;20209;-84
2020/12/03 03:06:51;;;;;;;;;;;;;;;1.66;71.48;100414.00;1724984;81;20901;-83
2020/12/03 03:09:17;;;;;;;;;;;;;;;1.65;71.31;100412.34;1738466;81;20249;-83
2020/12/03 03:11:43;;;;;;;;;;;;;;;1.53;71.19;100420.88;1743361;81;21193;-83
2020/12/03 03:14:08;;;;;;;;;;;;;;;1.42;71.27;100424.95;1741842;81;20276;-83
2020/12/03 03:16:34;;;;;;;;;;;;;;;1.42;71.45;100424.95;1744085;81;20502;-83
2020/12/03 03:19:00;;;;;;;;;;;;;;;1.47;71.33;100416.04;1728484;81;20189;-84
2020/12/03 03:21:25;;;;;;;;;;;;;;;1.43;71.44;100414.09;1740035;81;20898;-84
2020/12/03 03:23:51;;;;;;;;;;;;;;;1.48;71.54;100418.55;1739555;81;21293;-83
2020/12/03 03:26:17;;;;;;;;;;;;;;;1.45;71.63;100408.80;1745706;81;20354;-84
2020/12/03 03:28:42;;;;;;;;;;;;;;;1.43;71.86;100405.81;1742328;81;20603;-84
2020/12/03 03:31:08;;;;;;;;;;;;;;;1.37;71.81;100402.27;1727387;81;20652;-84
2020/12/03 03:33:34;;;;;;;;;;;;;;;1.42;71.72;100405.91;1727094;82;20165;-83
2020/12/03 03:35:59;;;;;;;;;;;;;;;1.38;71.62;100409.16;1721290;82;21168;-84
2020/12/03 03:38:25;;;;;;;;;;;;;;;1.42;71.66;100405.43;1727311;82;20205;-85
2020/12/03 03:40:51;;;;;;;;;;;;;;;1.46;71.50;100390.94;1726017;82;20185;-84
2020/12/03 03:43:16;;;;;;;;;;;;;;;1.43;71.47;100390.20;1721409;82;20779;-84
2020/12/03 03:45:42;;;;;;;;;;;;;;;1.50;71.39;100390.66;1722683;82;20201;-85
2020/12/03 03:48:08;;;;;;;;;;;;;;;1.48;71.27;100383.89;1716626;82;22005;-84
2020/12/03 03:50:33;;;;;;;;;;;;;;;1.54;71.15;100378.30;1723497;82;20189;-86
2020/12/03 03:52:59;;;;;;;;;;;;;;;1.56;71.09;100373.84;1724299;82;20458;-84
2020/12/03 03:55:25;;;;;;;;;;;;;;;1.56;70.95;100373.84;1715820;82;20153;-84
2020/12/03 03:57:50;;;;;;;;;;;;;;;1.53;71.09;100367.53;1719077;82;20347;-83
2020/12/03 04:00:17;;;;;;;;;;;;;;;1.49;71.33;100358.22;1717472;82;21129;-83
2020/12/03 04:02:46;;;;;;;;;;;;;;;1.45;71.21;100355.45;1708992;82;20235;-83
2020/12/03 04:05:12;;;;;;;;;;;;;;;1.36;71.46;100349.85;1730947;82;20273;-84
2020/12/03 04:07:38;;;;;;;;;;;;;;;1.35;71.40;100344.74;1721228;82;20285;-84
2020/12/03 04:10:04;;;;;;;;;;;;;;;1.31;71.38;100345.40;1732658;82;20229;-85
2020/12/03 04:12:30;;;;;;;;;;;;;;;1.36;71.51;100342.05;1729823;82;21202;-85
2020/12/03 04:14:59;;;;;;;;;;;;;;;1.32;71.44;100345.78;1734612;82;20509;-83
2020/12/03 04:17:23;;;;;;;;;;;;;;;1.35;71.77;100337.79;1722591;82;20285;-82
2020/12/03 04:19:49;;;;;;;;;;;;;;;1.28;71.83;100337.78;1724399;82;20469;-82
2020/12/03 04:22:14;;;;;;;;;;;;;;;1.29;71.93;100332.95;1726663;82;20453;-83
2020/12/03 04:24:40;;;;;;;;;;;;;;;1.39;71.57;100332.75;1715642;82;21261;-82
2020/12/03 04:27:05;;;;;;;;;;;;;;;1.41;71.55;100326.16;1722742;82;20540;-82
2020/12/03 04:29:31;;;;;;;;;;;;;;;1.41;71.42;100327.02;1736140;81;20178;-83
2020/12/03 04:31:57;;;;;;;;;;;;;;;1.32;71.55;100332.77;1745849;81;20181;-82
2020/12/03 04:34:22;;;;;;;;;;;;;;;1.27;71.77;100332.19;1735248;81;20301;-83
2020/12/03 04:36:48;;;;;;;;;;;;;;;1.18;72.00;100340.54;1732714;81;21266;-84
2020/12/03 04:39:13;;;;;;;;;;;;;;;1.24;72.01;100345.38;1738141;81;20213;-84
2020/12/03 04:41:39;;;;;;;;;;;;;;;1.23;72.02;100341.13;1741782;81;20213;-85
2020/12/03 04:44:19;;;;;;;;;;;;;;;1.19;72.03;100339.63;1739186;81;20667;-85
2020/12/03 04:46:48;;;;;;;;;;;;;;;1.08;72.09;100339.78;1738881;81;20309;-85
2020/12/03 04:49:30;;;;;;;;;;;;;;;1.15;72.17;100322.52;1733675;81;21191;-85
2020/12/03 04:52:24;;;;;;;;;;;;;;;1.18;72.12;100321.89;1737415;81;20285;-84
2020/12/03 04:54:59;;;;;;;;;;;;;;;1.18;72.03;100320.59;1737713;81;20608;-84
2020/12/03 04:57:28;;;;;;;;;;;;;;;1.21;72.04;100309.14;1720006;81;20709;-85
2020/12/03 05:00:03;;;;;;;;;;;;;;;1.14;72.22;100315.66;1737216;81;20273;-83
2020/12/03 05:02:35;;;;;;;;;;;;;;;1.22;72.09;100323.84;1743475;81;21425;-84
2020/12/03 05:05:20;;;;;;;;;;;;;;;1.14;72.26;100320.87;1744233;81;20307;-84
2020/12/03 05:07:49;;;;;;;;;;;;;;;1.13;72.29;100332.19;1740793;81;20193;-84
2020/12/03 05:10:21;;;;;;;;;;;;;;;1.06;72.64;100332.55;1724710;81;20766;-83
2020/12/03 05:12:47;;;;;;;;;;;;;;;1.11;72.51;100334.88;1726187;81;20225;-84
2020/12/03 05:15:20;;;;;;;;;;;;;;;1.07;72.61;100330.33;1735861;81;21197;-84
2020/12/03 05:17:59;;;;;;;;;;;;;;;0.97;72.88;100340.89;1745082;81;20261;-83
2020/12/03 05:20:31;;;;;;;;;;;;;;;1.03;72.90;100350.93;1695989;81;20307;-84
2020/12/03 05:23:15;;;;;;;;;;;;;;;0.99;73.05;100344.23;1734950;81;20308;-84
2020/12/03 05:25:41;;;;;;;;;;;;;;;1.05;72.99;100342.56;1732287;80;20244;-83
2020/12/03 05:28:23;;;;;;;;;;;;;;;0.99;73.06;100342.92;1728161;81;21272;-83
2020/12/03 05:30:48;;;;;;;;;;;;;;;0.96;73.19;100340.50;1687067;81;20610;-83
2020/12/03 05:33:14;;;;;;;;;;;;;;;0.96;73.22;100334.00;1734328;82;20232;-83
2020/12/03 05:35:40;;;;;;;;;;;;;;;0.95;73.30;100334.95;1737564;81;20200;-83
2020/12/03 05:38:17;;;;;;;;;;;;;;;0.99;73.19;100328.63;1710840;81;20238;-83
2020/12/03 05:41:04;;;;;;;;;;;;;;;1.02;73.11;100327.62;1728263;81;21997;-84
2020/12/03 05:43:30;;;;;;;;;;;;;;;1.07;72.98;100321.23;1727893;81;20269;-83
2020/12/03 05:45:57;;;;;;;;;;;;;;;1.00;73.08;100322.98;1745206;81;20537;-83
2020/12/03 05:48:23;;;;;;;;;;;;;;;0.96;73.33;100310.60;1739802;81;20293;-84
2020/12/03 05:50:48;;;;;;;;;;;;;;;0.95;73.31;100307.66;1745681;81;20768;-84
2020/12/03 05:53:18;;;;;;;;;;;;;;;0.93;73.44;100304.76;1727019;81;21284;-83
2020/12/03 05:55:45;;;;;;;;;;;;;;;0.94;73.40;100303.36;1737703;81;20201;-84
2020/12/03 05:58:14;;;;;;;;;;;;;;;0.79;73.80;100288.67;1735326;79;20132;-83
2020/12/03 06:00:40;;;;;;;;;;;;;;;0.77;74.02;100291.83;1735343;79;20209;-84
2020/12/03 06:03:10;;;;;;;;;;;;;;;0.77;73.96;100278.83;1737460;78;20403;-83
2020/12/03 06:06:00;;;;;;;;;;;;;;;0.71;74.08;100278.28;1741558;78;21243;-84
2020/12/03 06:08:56;;;;;;;;;;;;;;;0.69;74.13;100278.81;1729143;79;20281;-83
2020/12/03 06:11:54;;;;;;;;;;;;;;;0.58;74.56;100281.67;1738982;81;20230;-83
2020/12/03 06:14:57;;;;;;;;;;;;;;;0.63;74.40;100277.04;1737211;81;20720;-82
2020/12/03 06:17:46;;;;;;;;;;;;;;;0.58;74.65;100277.78;1743092;81;20306;-83
2020/12/03 06:20:32;;;;;;;;;;;;;;;0.60;74.58;100272.84;1729605;81;22245;-82
2020/12/03 06:23:20;;;;;;;;;;;;;;;0.60;74.56;100267.65;1727447;81;21013;-83
2020/12/03 06:25:50;;;;;;;;;;;;;;;0.56;74.69;100265.31;1728365;81;20275;-84
2020/12/03 06:28:41;;;;;;;;;;;;;;;0.50;74.76;100269.12;1731553;81;20307;-84
2020/12/03 06:31:32;;;;;;;;;;;;;;;0.45;74.96;100268.09;1717518;81;20597;-83
2020/12/03 06:34:19;;;;;;;;;;;;;;;0.51;74.83;100262.98;1723543;81;21201;-85
2020/12/03 06:36:49;;;;;;;;;;;;;;;0.53;74.81;100259.86;1737199;81;20536;-83
2020/12/03 06:39:44;;;;;;;;;;;;;;;0.57;74.66;100252.23;1743880;81;20289;-83
2020/12/03 06:42:13;;;;;;;;;;;;;;;0.50;74.91;100251.77;1732923;81;20237;-84
2020/12/03 06:44:52;;;;;;;;;;;;;;;0.51;74.92;100251.30;1728862;81;20288;-84
2020/12/03 06:47:38;;;;;;;;;;;;;;;0.42;75.22;100256.58;1733468;81;21934;-84
2020/12/03 06:50:25;;;;;;;;;;;;;;;0.40;75.31;100253.21;1734641;81;20284;-83
2020/12/03 06:53:03;;;;;;;;;;;;;;;0.35;75.41;100256.08;1738221;81;20324;-83
2020/12/03 06:55:55;;;;;;;;;;;;;;;0.33;75.73;100258.41;1660234;85;20319;-82
2020/12/03 06:58:34;;;;;;;;;;;;;;;0.31;75.77;100258.49;1672550;84;20607;-83
2020/12/03 07:01:23;;;;;;;;;;;;;;;0.27;75.99;100240.10;1721892;81;20777;-84
2020/12/03 07:04:12;;;;;;;;;;;;;;;0.28;76.04;100240.48;1724302;81;20292;-84
2020/12/03 07:06:50;;;;;;;;;;;;;;;0.26;76.14;100248.80;1731315;81;20595;-84
2020/12/03 07:09:36;;;;;;;;;;;;;;;0.26;76.17;100248.80;1729429;81;20280;-83
2020/12/03 07:12:18;;;;;;;;;;;;;;;0.26;76.31;100251.41;1730101;81;20281;-83
2020/12/03 07:15:13;;;;;;;;;;;;;;;0.17;76.64;100244.14;1720639;81;21241;-83
2020/12/03 07:17:45;;;;;;;;;;;;;;;0.24;76.56;100248.07;1729146;81;20232;-82
2020/12/03 07:20:37;;;;;;;;;;;;;;;0.29;76.94;100265.98;1740409;80;20292;-83
2020/12/03 07:23:07;;;;;;;;;;;;;;;0.28;76.62;100268.20;1739939;81;20622;-83
2020/12/03 07:25:32;;;;;;;;;;;;;;;0.24;76.58;100268.02;1746407;81;20284;-84
2020/12/03 07:28:20;;;;;;;;;;;;;;;0.24;76.65;100269.32;1742470;81;21327;-83
2020/12/03 07:30:54;;;;;;;;;;;;;;;0.25;76.62;100267.94;1734440;81;20292;-84
2020/12/03 07:33:51;;;;;;;;;;;;;;;0.30;76.43;100275.46;1745104;80;20690;-83
2020/12/03 07:36:37;;;;;;;;;;;;;;;0.30;76.37;100272.39;1721126;81;20246;-83
2020/12/03 07:39:12;;;;;;;;;;;;;;;0.26;76.49;100266.98;1740330;81;20272;-83
2020/12/03 07:41:41;;;;;;;;;;;;;;;0.27;76.59;100270.45;1746518;81;21355;-83
2020/12/03 07:44:22;;;;;;;;;;;;;;;0.34;76.61;100270.01;1739834;81;20540;-84
2020/12/03 07:46:50;;;;;;;;;;;;;;;0.37;76.31;100264.25;1739516;81;20189;-84
2020/12/03 07:49:42;;;;;;;;;;;;;;;0.46;76.12;100255.45;1737384;81;20316;-84
2020/12/03 07:52:30;;;;;;;;;;;;;;;0.44;75.95;100241.73;1737767;81;20272;-83
2020/12/03 07:55:17;;;;;;;;;;;;;;;0.40;76.19;100230.30;1746066;81;21357;-84
2020/12/03 07:57:54;;;;;;;;;;;;;;;0.35;76.39;100224.08;1733223;81;20265;-85
2020/12/03 08:00:51;;;;;;;;;;;;;;;0.34;76.49;100225.84;1741593;81;20300;-85
2020/12/03 08:03:45;;;;;;;;;;;;;;;0.44;76.24;100222.72;1739675;81;20286;-84
2020/12/03 08:06:20;;;;;;;;;;;;;;;0.47;76.16;100209.55;1751832;81;20297;-84
2020/12/03 08:08:55;;;;;;;;;;;;;;;0.45;76.19;100211.38;1743693;81;21221;-84
2020/12/03 08:11:45;;;;;;;;;;;;;;;0.45;76.13;100199.69;1747424;81;20251;-83
2020/12/03 08:14:45;;;;;;;;;;;;;;;0.34;76.36;100202.47;1741863;81;20213;-83
2020/12/03 08:17:20;;;;;;;;;;;;;;;0.47;76.45;100197.86;1744784;81;20261;-83
2020/12/03 08:19:51;;;;;;;;;;;;;;;0.52;76.37;100199.72;1741411;81;20304;-83
2020/12/03 08:22:25;;;;;;;;;;;;;;;0.59;75.82;100194.98;1686522;81;21102;-82
2020/12/03 08:25:12;;;;;;;;;;;;;;;0.62;75.75;100189.16;1743301;81;20197;-82
2020/12/03 08:27:37;;;;;;;;;;;;;;;0.39;76.05;100177.97;1749622;81;20270;-82
2020/12/03 08:30:04;;;;;;;;;;;;;;;0.37;76.29;100199.31;1750159;81;20183;-81
2020/12/03 08:32:36;;;;;;;;;;;;;;;0.33;76.46;100202.56;1735558;81;20295;-82
2020/12/03 08:35:02;;;;;;;;;;;;;;;0.42;76.30;100207.22;1737729;81;21273;-82
2020/12/03 08:37:28;;;;;;;;;;;;;;;0.50;76.23;100196.37;1741430;81;20776;-83
2020/12/03 08:39:55;;;;;;;;;;;;;;;0.44;76.31;100183.75;1746327;81;20244;-83
2020/12/03 08:42:21;;;;;;;;;;;;;;;0.48;76.06;100180.02;1743569;81;20273;-82
2020/12/03 08:44:47;;;;;;;;;;;;;;;0.48;76.08;100180.02;1739618;80;20764;-82
2020/12/03 08:47:43;;;;;;;;;;;;;;;0.56;76.03;100185.63;1740440;81;21262;-83
2020/12/03 08:50:15;;;;;;;;;;;;;;;0.64;75.94;100191.19;1740331;81;20497;-81
2020/12/03 08:52:41;;;;;;;;;;;;;;;0.72;75.62;100203.73;1750522;81;20350;-82
2020/12/03 08:55:07;;;;;;;;;;;;;;;0.70;75.54;100199.92;1743885;81;20236;-82
2020/12/03 08:57:34;;;;;;;;;;;;;;;0.77;75.20;100200.86;1741798;81;20853;-84
2020/12/03 09:00:01;;;;;;;;;;;;;;;0.67;75.20;100200.58;1741112;81;21126;-83
2020/12/03 09:02:27;;;;;;;;;;;;;;;0.83;75.02;100202.61;1740914;81;21028;-83
2020/12/03 09:04:54;;;;;;;;;;;;;;;0.86;74.87;100204.20;1743131;81;20217;-83
2020/12/03 09:07:21;;;;;;;;;;;;;;;0.98;74.53;100202.61;1744647;81;20576;-83
2020/12/03 09:09:47;;;;;;;;;;;;;;;1.04;74.41;100214.79;1736129;81;20261;-83
2020/12/03 09:12:28;;;;;;;;;;;;;;;1.07;74.04;100208.55;1736196;81;21254;-83
2020/12/03 09:14:54;;;;;;;;;;;;;;;1.04;73.68;100208.29;1739550;81;20976;-82
2020/12/03 09:17:19;;;;;;;;;;;;;;;1.10;73.20;100212.73;1737010;81;20277;-82
2020/12/03 09:19:45;;;;;;;;;;;;;;;1.04;73.31;100208.29;1742797;81;20200;-82
2020/12/03 09:22:10;;;;;;;;;;;;;;;1.14;73.30;100211.62;1744891;81;20481;-81
2020/12/03 09:24:36;;;;;;;;;;;;;;;1.02;73.17;100198.42;1721086;82;21192;-82
2020/12/03 09:27:03;;;;;;;;;;;;;;;1.02;73.15;100193.70;1694885;82;20493;-83
2020/12/03 09:29:28;;;;;;;;;;;;;;;1.06;73.31;100186.92;1741863;81;20292;-82
2020/12/03 09:32:07;;;;;;;;;;;;;;;1.03;73.09;100193.61;1744633;81;20476;-82
2020/12/03 09:34:36;;;;;;;;;;;;;;;1.12;73.16;100201.77;1742279;81;20415;-81
2020/12/03 09:37:02;;;;;;;;;;;;;;;1.12;73.04;100192.66;1681971;84;21172;-83
2020/12/03 09:39:28;;;;;;;;;;;;;;;1.12;72.88;100199.16;1734410;81;20309;-80
2020/12/03 09:41:54;;;;;;;;;;;;;;;1.12;72.64;100193.52;1720148;81;20215;-81
2020/12/03 09:44:21;;;;;;;;;;;;;;;1.13;72.75;100189.14;1722041;81;20512;-82
2020/12/03 09:46:48;;;;;;;;;;;;;;;1.17;72.61;100189.33;1735019;81;20262;-81
2020/12/03 09:49:15;;;;;;;;;;;;;;;1.25;72.34;100190.98;1736128;81;21199;-80
2020/12/03 09:51:43;;;;;;;;;;;;;;;1.33;72.24;100184.83;1731401;81;20348;-81
2020/12/03 09:54:09;;;;;;;;;;;;;;;1.28;72.05;100184.29;1731273;81;20248;-83
2020/12/03 09:56:38;;;;;;;;;;;;;;;1.36;71.92;100185.11;1731648;81;20549;-83
2020/12/03 09:59:04;;;;;;;;;;;;;;;1.43;71.65;100178.12;1732012;81;20605;-81
2020/12/03 10:01:46;;;;;;;;;;;;;;;1.38;71.88;100172.83;1735438;81;21097;-82
2020/12/03 10:04:33;;;;;;;;;;;;;;;1.38;71.63;100167.19;1700908;81;20213;-80
2020/12/03 10:07:11;;;;;;;;;;;;;;;1.39;71.68;100161.50;1710974;81;20329;-81
2020/12/03 10:10:04;;;;;;;;;;;;;;;1.45;71.45;100149.88;1724390;81;20679;-82
2020/12/03 10:13:05;;;;;;;;;;;;;;;1.42;71.26;100143.92;1732296;81;20525;-81
2020/12/03 10:15:52;;;;;;;;;;;;;;;1.38;71.34;100130.76;1731207;81;21447;-81
2020/12/03 10:18:21;;;;;;;;;;;;;;;1.53;71.33;100132.00;1725261;81;20292;-82
2020/12/03 10:20:51;;;;;;;;;;;;;;;1.51;71.03;100126.05;1736519;81;20287;-83
2020/12/03 10:23:35;;;;;;;;;;;;;;;1.55;71.11;100119.72;1732572;81;20273;-82
2020/12/03 10:26:13;;;;;;;;;;;;;;;1.57;70.59;100118.70;1726139;81;20996;-82
2020/12/03 10:28:46;;;;;;;;;;;;;;;1.59;70.61;100117.30;1724167;81;21257;-82
2020/12/03 10:31:11;;;;;;;;;;;;;;;1.51;70.62;100118.23;1726168;81;20215;-89
2020/12/03 10:33:37;;;;;;;;;;;;;;;1.52;70.57;100125.12;1737135;81;20248;-81
2020/12/03 10:36:11;;;;;;;;;;;;;;;1.60;70.59;100113.29;1728137;81;20664;-82
2020/12/03 10:38:46;;;;;;;;;;;;;;;1.71;70.40;100120.41;1703509;81;20268;-82
2020/12/03 10:41:12;;;;;;;;;;;;;;;1.63;70.34;100125.25;1734625;81;21165;-81
2020/12/03 10:43:43;;;;;;;;;;;;;;;1.68;70.22;100120.60;1729928;81;20410;-81
2020/12/03 10:46:13;;;;;;;;;;;;;;;1.71;70.34;100118.25;1744439;81;20284;-82
2020/12/03 10:48:41;;;;;;;;;;;;;;;1.84;70.10;100115.22;1716544;82;20603;-82
2020/12/03 10:51:08;;;;;;;;;;;;;;;1.81;70.04;100104.19;1741665;81;20520;-80
2020/12/03 10:53:35;;;;;;;;;;;;;;;1.85;70.00;100105.63;1734652;81;21343;-81
2020/12/03 10:56:05;;;;;;;;;;;;;;;1.81;70.13;100092.47;1731863;81;20318;-81
2020/12/03 10:58:35;;;;;;;;;;;;;;;1.87;69.85;100088.16;1728205;81;20273;-78
2020/12/03 11:01:06;;;;;;;;;;;;;;;1.75;69.75;100085.88;1745129;81;21279;-81
2020/12/03 11:03:33;;;;;;;;;;;;;;;1.86;69.64;100079.97;1739982;81;20691;-82
2020/12/03 11:05:58;;;;;;;;;;;;;;;1.93;69.66;100076.03;1730185;81;21257;-80
2020/12/03 11:08:25;;;;;;;;;;;;;;;1.96;69.72;100074.52;1733346;81;20185;-82
2020/12/03 11:10:55;;;;;;;;;;;;;;;1.99;69.49;100087.34;1729282;81;20319;-84
2020/12/03 11:13:25;;;;;;;;;;;;;;;2.03;69.71;100073.16;1730708;80;20224;-84
2020/12/03 11:15:50;;;;;;;;;;;;;;;2.09;69.64;100077.95;1738269;80;20322;-82
2020/12/03 11:18:24;;;;;;;;;;;;;;;2.11;69.47;100068.28;1706152;81;21098;-82
2020/12/03 11:20:56;;;;;;;;;;;;;;;2.10;69.58;100060.58;1723494;81;20422;-84
2020/12/03 11:23:23;;;;;;;;;;;;;;;2.09;69.68;100056.30;1728859;81;20299;-82
2020/12/03 11:25:50;;;;;;;;;;;;;;;2.01;69.72;100052.91;1733363;81;20268;-82
2020/12/03 11:28:34;;;;;;;;;;;;;;;1.98;69.67;100049.20;1740649;81;20295;-81
2020/12/03 11:31:02;;;;;;;;;;;;;;;2.03;69.39;100047.11;1734208;81;20165;-83
2020/12/03 11:33:30;;;;;;;;;;;;;;;2.08;69.33;100045.05;1728123;81;20289;-81
2020/12/03 11:36:04;;;;;;;;;;;;;;;2.07;69.22;100036.86;1737001;81;20285;-79
2020/12/03 11:38:32;;;;;;;;;;;;;;;2.05;69.15;100033.98;1750458;80;20412;-83
2020/12/03 11:40:59;;;;;;;;;;;;;;;2.06;69.42;100033.87;1733907;81;20213;-81
2020/12/03 11:43:42;;;;;;;;;;;;;;;1.97;69.52;100031.45;1734623;81;21975;-83
2020/12/03 11:46:29;;;;;;;;;;;;;;;2.00;69.66;100029.09;1741212;81;20553;-84
2020/12/03 11:48:43;;;;;;;;;;;;;;;2.10;69.48;100023.63;1736986;81;20141;-81
2020/12/03 11:51:04;;;;;;;;;;;;;;;2.19;69.40;100018.72;1739438;81;20260;-82
2020/12/03 11:53:30;;;;;;;;;;;;;;;2.21;69.29;100020.77;1743113;81;20237;-81
2020/12/03 11:55:57;;;;;;;;;;;;;;;2.25;69.19;100024.80;1743370;81;21197;-83
2020/12/03 11:58:29;;;;;;;;;;;;;;;2.25;69.27;100018.30;1747327;81;20304;-80
2020/12/03 12:01:13;;;;;;;;;;;;;;;2.19;69.22;100022.17;1736479;81;20210;-81
2020/12/03 12:03:43;;;;;;;;;;;;;;;2.25;69.08;100013.08;1728976;81;20269;-84
2020/12/03 12:06:17;;;;;;;;;;;;;;;2.32;69.10;100020.85;1746854;81;20218;-82
2020/12/03 12:08:41;;;;;;;;;;;;;;;2.39;68.93;100022.06;1731029;81;20295;-82
2020/12/03 12:13:49;;;;;;;;;;;;;;;2.56;68.81;99997.43;1738956;81;20205;-83
2020/12/03 12:16:15;;;;;;;;;;;;;;;2.56;68.67;99992.70;1715922;82;20245;-82
2020/12/03 12:18:41;;;;;;;;;;;;;;;2.65;68.55;99997.27;1722334;82;20269;-84
2020/12/03 12:21:07;;;;;;;;;;;;;;;2.79;68.41;99981.45;1737410;80;21202;-83
2020/12/03 12:23:33;;;;;;;;;;;;;;;2.80;68.07;99979.22;1732787;81;20520;-82
2020/12/03 12:25:59;;;;;;;;;;;;;;;2.74;68.39;99974.45;1744349;80;20236;-81
2020/12/03 12:28:24;;;;;;;;;;;;;;;2.65;68.37;99968.59;1734688;81;20224;-81
2020/12/03 12:30:50;;;;;;;;;;;;;;;2.65;68.72;99967.28;1745335;81;20197;-87
2020/12/03 12:33:16;;;;;;;;;;;;;;;2.68;68.69;99955.33;1744849;79;21264;-83
2020/12/03 12:35:41;;;;;;;;;;;;;;;2.69;68.68;99960.92;1750524;79;20979;-81
2020/12/03 12:38:07;;;;;;;;;;;;;;;2.75;68.60;99969.60;1738736;81;20161;-82
2020/12/03 12:40:33;;;;;;;;;;;;;;;2.75;68.60;99973.52;1738084;81;20339;-82
2020/12/03 12:42:59;;;;;;;;;;;;;;;2.80;68.57;99964.05;1705891;82;20294;-82
2020/12/03 12:45:25;;;;;;;;;;;;;;;2.78;68.57;99951.12;1728969;81;21967;-82
2020/12/03 12:47:50;;;;;;;;;;;;;;;2.80;68.42;99951.84;1742115;81;20169;-82
2020/12/03 12:50:16;;;;;;;;;;;;;;;2.75;68.48;99959.62;1738196;80;20248;-81
2020/12/03 12:52:42;;;;;;;;;;;;;;;2.74;68.74;99958.80;1743302;81;20681;-82
2020/12/03 12:55:07;;;;;;;;;;;;;;;2.82;68.60;99955.64;1728581;81;20205;-79
2020/12/03 12:57:33;;;;;;;;;;;;;;;2.88;68.53;99958.62;1735153;81;22505;-83
2020/12/03 12:59:59;;;;;;;;;;;;;;;2.88;68.52;99956.02;1737663;82;20204;-83
2020/12/03 13:02:24;;;;;;;;;;;;;;;2.87;68.43;99949.16;1742247;81;20204;-83
2020/12/03 13:04:50;;;;;;;;;;;;;;;2.87;68.62;99950.91;1740875;81;20216;-83
2020/12/03 13:07:15;;;;;;;;;;;;;;;2.79;68.80;99949.34;1741765;81;20260;-83
2020/12/03 13:09:43;;;;;;;;;;;;;;;2.83;68.82;99949.01;1742604;81;21995;-80